Time;durP1;ratioP1;P1;durP2;ratioP2;P2;SDS_P1;SDS_P2;PMS_P1;PMS_P2;Temp;Humidity;BMP_temperature;BMP_pressure;BME280_temperature;BME280_humidity;BME280_pressure;Samples;Min_cycle;Max_cycle;Signal;HPM_P1;HPM_P2
2022/04/27 00:01:23;;;;;;;17.52;7.90;;;15.70;47.20;;;;;;7396127;19;20476;-85
2022/04/27 00:03:52;;;;;;;13.10;7.53;;;15.70;47.30;;;;;;7373566;19;20018;-84
2022/04/27 00:06:22;;;;;;;8.93;6.72;;;15.70;47.30;;;;;;7372858;19;20094;-84
2022/04/27 00:08:50;;;;;;;12.68;7.00;;;15.70;47.50;;;;;;7373019;19;20086;-84
2022/04/27 00:11:22;;;;;;;13.02;7.05;;;15.70;47.50;;;;;;7370937;19;20014;-85
2022/04/27 00:13:50;;;;;;;;;;;15.70;47.60;;;;;;7395254;19;20103;-85
2022/04/27 00:16:19;;;;;;;12.60;7.45;;;15.70;47.40;;;;;;7372380;19;20010;-85
2022/04/27 00:18:48;;;;;;;12.75;7.25;;;15.60;47.40;;;;;;7372312;19;20733;-85
2022/04/27 00:21:17;;;;;;;12.85;7.40;;;15.60;48.20;;;;;;7372997;19;20125;-85
2022/04/27 00:23:46;;;;;;;13.57;7.65;;;15.50;47.70;;;;;;7374015;19;20200;-85
2022/04/27 00:26:15;;;;;;;18.08;8.85;;;15.50;47.70;;;;;;7370573;19;20035;-84
2022/04/27 00:28:46;;;;;;;12.52;7.22;;;15.50;47.80;;;;;;7394489;19;20022;-85
2022/04/27 00:31:15;;;;;;;17.90;7.90;;;15.50;47.70;;;;;;7370270;19;20015;-84
2022/04/27 00:33:45;;;;;;;18.02;8.02;;;15.50;47.80;;;;;;7372434;19;20078;-85
2022/04/27 00:36:14;;;;;;;13.50;7.55;;;15.50;48.10;;;;;;7372315;19;20026;-85
2022/04/27 00:38:42;;;;;;;13.25;6.97;;;15.40;48.10;;;;;;7371941;19;20174;-85
2022/04/27 00:41:11;;;;;;;11.95;7.07;;;15.40;48.00;;;;;;7372055;19;20042;-85
2022/04/27 00:43:41;;;;;;;13.82;7.55;;;15.40;48.00;;;;;;7393086;19;20101;-84
2022/04/27 00:46:13;;;;;;;19.27;7.32;;;15.40;48.00;;;;;;7371805;19;20011;-85
2022/04/27 00:48:43;;;;;;;14.73;8.00;;;15.40;48.10;;;;;;7370716;19;20094;-85
2022/04/27 00:51:15;;;;;;;13.82;7.78;;;15.40;48.20;;;;;;7373009;19;20090;-84
2022/04/27 00:53:44;;;;;;;14.63;7.97;;;15.30;48.20;;;;;;7372724;19;20022;-84
2022/04/27 00:56:17;;;;;;;17.80;8.30;;;15.30;48.30;;;;;;7372524;19;20024;-86
2022/04/27 00:58:47;;;;;;;11.88;8.10;;;15.30;48.30;;;;;;7396566;19;20018;-86
2022/04/27 01:01:19;;;;;;;15.88;8.48;;;15.30;48.40;;;;;;7372190;19;20010;-85
2022/04/27 01:03:48;;;;;;;10.52;7.13;;;15.30;48.40;;;;;;7373991;19;20014;-84
2022/04/27 01:06:17;;;;;;;13.23;8.13;;;15.30;49.20;;;;;;7379209;19;20333;-84
2022/04/27 01:08:46;;;;;;;15.35;8.43;;;15.30;48.50;;;;;;7401481;19;20042;-85
2022/04/27 01:11:19;;;;;;;14.50;7.55;;;15.30;48.50;;;;;;7388780;19;20110;-85
2022/04/27 01:13:47;;;;;;;17.90;8.07;;;15.30;48.40;;;;;;7407161;19;20026;-87
2022/04/27 01:16:19;;;;;;;11.63;8.30;;;15.30;48.50;;;;;;7376348;19;20029;-84
2022/04/27 01:18:49;;;;;;;13.93;8.35;;;15.30;48.50;;;;;;7374083;19;20120;-85
2022/04/27 01:21:22;;;;;;;17.35;8.60;;;15.30;48.50;;;;;;7373742;19;20006;-86
2022/04/27 01:23:51;;;;;;;13.30;8.15;;;15.30;48.60;;;;;;7373004;19;20018;-85
2022/04/27 01:26:19;;;;;;;16.40;8.43;;;15.30;48.60;;;;;;7370290;19;20082;-84
2022/04/27 01:28:48;;;;;;;14.02;8.35;;;15.20;48.50;;;;;;7392528;19;20039;-85
2022/04/27 01:31:25;;;;;;;15.70;7.97;;;15.20;48.60;;;;;;7373194;19;20384;-85
2022/04/27 01:33:56;;;;;;;16.52;8.38;;;15.20;48.40;;;;;;7372729;19;20015;-84
2022/04/27 01:37:59;;;;;;;12.57;7.97;;;15.20;48.60;;;;;;7374227;19;20010;-86
2022/04/27 01:39:45;;;;;;;17.73;8.65;;;15.10;48.60;;;;;;7374259;19;20783;-85
2022/04/27 01:42:16;;;;;;;12.90;8.55;;;15.10;48.50;;;;;;7373219;19;20501;-86
2022/04/27 01:44:48;;;;;;;10.73;7.05;;;15.20;48.60;;;;;;7372726;19;20018;-85
2022/04/27 01:47:21;;;;;;;;;;;15.20;48.60;;;;;;7377295;19;20038;-85
2022/04/27 01:49:50;;;;;;;11.35;8.20;;;15.10;48.60;;;;;;7400013;19;20314;-84
2022/04/27 01:55:02;;;;;;;11.23;8.07;;;15.00;49.30;;;;;;7372350;19;20433;-85
2022/04/27 01:57:31;;;;;;;16.83;8.57;;;15.00;49.00;;;;;;7371212;19;20078;-85
2022/04/27 02:00:02;;;;;;;16.60;9.00;;;14.90;49.30;;;;;;7371386;19;20011;-83
2022/04/27 02:05:18;;;;;;;12.65;8.60;;;14.90;49.40;;;;;;7376321;19;20584;-84
2022/04/27 02:08:03;;;;;;;17.35;8.63;;;14.90;49.50;;;;;;7399285;19;20113;-86
2022/04/27 02:10:32;;;;;;;13.65;7.80;;;14.80;49.70;;;;;;7378603;19;20078;-84
2022/04/27 02:13:03;;;;;;;14.85;8.18;;;14.70;49.70;;;;;;7376550;19;20568;-86
2022/04/27 02:15:36;;;;;;;13.13;7.95;;;14.70;49.70;;;;;;7377208;19;20450;-85
2022/04/27 02:18:08;;;;;;;19.70;8.45;;;14.70;49.70;;;;;;7377647;19;20044;-85
2022/04/27 02:20:40;;;;;;;13.40;8.70;;;14.70;49.90;;;;;;7377997;19;20330;-85
2022/04/27 02:23:11;;;;;;;15.93;8.73;;;14.60;49.80;;;;;;7377901;19;20017;-84
2022/04/27 02:25:40;;;;;;;;;;;14.60;50.00;;;;;;7394529;19;20335;-83
2022/04/27 02:28:09;;;;;;;16.40;9.32;;;14.60;50.10;;;;;;7376538;19;20366;-84
2022/04/27 02:30:37;;;;;;;15.27;9.25;;;14.50;50.00;;;;;;7376965;19;20458;-84
2022/04/27 02:33:06;;;;;;;13.98;8.93;;;14.60;50.10;;;;;;7376412;19;20169;-85
2022/04/27 02:35:35;;;;;;;18.08;9.55;;;14.60;50.60;;;;;;7376544;19;20014;-85
2022/04/27 02:38:04;;;;;;;14.15;9.05;;;14.50;50.00;;;;;;7374568;19;20090;-84
2022/04/27 02:40:35;;;;;;;24.38;9.18;;;14.40;50.10;;;;;;7401100;19;20506;-85
2022/04/27 02:43:06;;;;;;;13.38;8.65;;;14.40;50.30;;;;;;7379920;19;20788;-84
2022/04/27 02:45:35;;;;;;;15.32;9.73;;;14.30;50.30;;;;;;7374975;19;20022;-84
2022/04/27 02:48:04;;;;;;;17.63;9.45;;;14.20;50.60;;;;;;7375178;19;20106;-84
2022/04/27 02:53:18;;;;;;;17.83;9.50;;;14.20;50.90;;;;;;7376258;19;20018;-83
2022/04/27 02:55:49;;;;;;;18.42;9.45;;;14.10;51.00;;;;;;7397673;19;20022;-84
2022/04/27 02:58:18;;;;;;;18.05;9.85;;;14.10;51.10;;;;;;7376071;19;20014;-85
2022/04/27 03:00:47;;;;;;;15.48;9.32;;;14.10;51.00;;;;;;7377071;19;20019;-84
2022/04/27 03:03:16;;;;;;;16.45;10.27;;;14.10;51.20;;;;;;7375555;19;20518;-84
2022/04/27 03:05:46;;;;;;;16.73;10.20;;;14.10;51.30;;;;;;7374609;19;20680;-84
2022/04/27 03:08:18;;;;;;;17.83;11.00;;;14.10;51.20;;;;;;7375588;19;20049;-84
2022/04/27 03:10:49;;;;;;;19.63;11.30;;;14.00;51.20;;;;;;7397879;19;20090;-85
2022/04/27 03:13:18;;;;;;;19.70;11.85;;;14.00;51.30;;;;;;7371480;19;20317;-85
2022/04/27 03:15:49;;;;;;;18.65;12.00;;;13.90;51.40;;;;;;7375319;19;20482;-85
2022/04/27 03:18:22;;;;;;;18.23;11.90;;;13.90;51.40;;;;;;7375735;19;20010;-84
2022/04/27 03:20:51;;;;;;;25.80;12.15;;;13.90;51.50;;;;;;7375697;19;20011;-84
2022/04/27 03:23:21;;;;;;;18.50;11.10;;;13.90;51.70;;;;;;7380268;19;20017;-84
2022/04/27 03:25:52;;;;;;;20.65;11.68;;;13.80;51.70;;;;;;7402920;19;20010;-84
2022/04/27 03:28:21;;;;;;;19.85;11.48;;;13.90;51.80;;;;;;7382181;19;20035;-84
2022/04/27 03:30:50;;;;;;;22.98;12.30;;;13.90;51.80;;;;;;7382752;19;20089;-84
2022/04/27 03:33:22;;;;;;;20.17;12.77;;;13.90;51.80;;;;;;7382090;19;20006;-85
2022/04/27 03:35:51;;;;;;;21.73;13.18;;;13.90;51.80;;;;;;7384058;19;20029;-85
2022/04/27 03:38:22;;;;;;;23.58;12.10;;;13.90;51.80;;;;;;7384826;19;20095;-86
2022/04/27 03:40:53;;;;;;;23.50;13.02;;;13.90;51.80;;;;;;7407620;19;20781;-85
2022/04/27 03:43:22;;;;;;;;;;;14.00;51.80;;;;;;7387153;19;20038;-85
2022/04/27 03:45:53;;;;;;;19.65;12.52;;;14.00;51.70;;;;;;7384035;19;19914;-85
2022/04/27 03:48:22;;;;;;;22.02;13.02;;;14.00;52.30;;;;;;7378813;19;20041;-85
2022/04/27 03:50:51;;;;;;;21.67;13.07;;;14.00;51.70;;;;;;7374987;19;20066;-84
2022/04/27 03:53:20;;;;;;;20.30;13.77;;;13.90;51.70;;;;;;7374403;19;20011;-83
2022/04/27 03:55:48;;;;;;;22.65;13.85;;;14.00;51.80;;;;;;7396902;19;20042;-84
2022/04/27 03:58:20;;;;;;;23.90;13.30;;;13.90;51.80;;;;;;7373278;19;20039;-85
2022/04/27 04:00:49;;;;;;;26.42;13.07;;;13.90;51.90;;;;;;7375436;19;20002;-84
2022/04/27 04:03:17;;;;;;;23.40;13.88;;;13.90;51.90;;;;;;7372664;19;20015;-85
2022/04/27 04:05:46;;;;;;;23.20;14.40;;;13.90;52.10;;;;;;7372936;19;20035;-84
2022/04/27 04:08:15;;;;;;;24.35;13.68;;;13.90;52.10;;;;;;7373938;19;20400;-83
2022/04/27 04:10:45;;;;;;;25.48;14.13;;;13.90;52.10;;;;;;7394658;19;20026;-85
2022/04/27 04:13:20;;;;;;;30.37;14.93;;;13.90;52.20;;;;;;7371927;19;20025;-83
2022/04/27 04:15:49;;;;;;;23.45;15.20;;;13.90;52.20;;;;;;7372782;19;20801;-83
2022/04/27 04:18:18;;;;;;;25.92;14.18;;;13.90;52.30;;;;;;7373610;19;20015;-82
2022/04/27 04:20:47;;;;;;;26.45;14.38;;;13.90;52.30;;;;;;7376139;19;20014;-83
2022/04/27 04:23:16;;;;;;;23.58;13.85;;;13.90;52.30;;;;;;7374052;19;20330;-83
2022/04/27 04:28:35;;;;;;;22.75;14.43;;;13.90;52.50;;;;;;7373962;19;20011;-83
2022/04/27 04:31:05;;;;;;;27.50;14.88;;;13.80;52.50;;;;;;7372168;19;20045;-84
2022/04/27 04:33:34;;;;;;;30.52;15.63;;;13.80;52.60;;;;;;7371465;19;20094;-83
2022/04/27 04:36:03;;;;;;;29.45;16.50;;;13.70;52.60;;;;;;7370992;19;20151;-83
2022/04/27 04:38:31;;;;;;;25.35;15.95;;;13.70;52.70;;;;;;7373060;19;20078;-82
2022/04/27 04:41:00;;;;;;;24.73;16.17;;;13.70;52.80;;;;;;7371434;19;20022;-82
2022/04/27 04:43:32;;;;;;;29.85;17.48;;;13.70;52.90;;;;;;7392979;19;20050;-83
2022/04/27 04:46:01;;;;;;;26.75;16.95;;;13.70;52.90;;;;;;7371526;19;20019;-83
2022/04/27 04:48:30;;;;;;;30.67;16.52;;;13.70;52.90;;;;;;7372786;19;20455;-84
2022/04/27 04:50:59;;;;;;;30.73;17.75;;;13.60;52.90;;;;;;7374143;19;20046;-83
2022/04/27 04:53:28;;;;;;;29.92;17.42;;;13.60;53.10;;;;;;7370483;19;20017;-83
2022/04/27 04:55:56;;;;;;;25.98;16.40;;;13.60;53.20;;;;;;7370191;19;20039;-82
2022/04/27 04:58:25;;;;;;;27.20;16.77;;;13.60;53.40;;;;;;7396351;19;20018;-85
2022/04/27 05:00:56;;;;;;;28.20;18.33;;;13.60;53.50;;;;;;7394949;19;20010;-84
2022/04/27 05:03:25;;;;;;;30.00;18.00;;;13.60;53.70;;;;;;7406585;19;20018;-85
2022/04/27 05:05:54;;;;;;;32.38;20.15;;;13.60;54.00;;;;;;7394261;19;20031;-85
2022/04/27 05:08:22;;;;;;;36.42;18.48;;;13.60;55.90;;;;;;7385322;19;20094;-85
2022/04/27 05:10:51;;;;;;;30.75;18.92;;;13.60;55.50;;;;;;7403759;19;20015;-85
2022/04/27 05:13:20;;;;;;;31.30;18.33;;;13.60;54.00;;;;;;7382934;19;20011;-85
2022/04/27 05:15:48;;;;;;;35.92;19.23;;;13.60;54.00;;;;;;7381565;19;20018;-85
2022/04/27 05:18:20;;;;;;;32.97;18.17;;;13.50;53.80;;;;;;7383106;19;20459;-86
2022/04/27 05:20:49;;;;;;;30.40;18.05;;;13.50;53.80;;;;;;7384081;19;20007;-85
2022/04/27 05:23:18;;;;;;;33.85;18.60;;;13.50;53.80;;;;;;7384672;19;20014;-85
2022/04/27 05:25:47;;;;;;;38.75;19.08;;;13.50;53.90;;;;;;7407595;19;20098;-85
2022/04/27 05:28:15;;;;;;;33.95;19.55;;;13.60;53.90;;;;;;7392443;19;20010;-85
2022/04/27 05:33:38;;;;;;;35.17;18.83;;;13.60;53.80;;;;;;7404713;19;20018;-86
2022/04/27 05:36:08;;;;;;;38.75;20.15;;;13.60;53.80;;;;;;7402242;19;20014;-85
2022/04/27 05:38:38;;;;;;;34.33;19.77;;;13.60;53.80;;;;;;7401540;19;20038;-85
2022/04/27 05:41:07;;;;;;;37.20;19.92;;;13.60;53.90;;;;;;7400721;19;20011;-85
2022/04/27 05:43:36;;;;;;;37.00;19.58;;;13.50;54.20;;;;;;7422885;19;20007;-85
2022/04/27 05:46:06;;;;;;;37.72;19.73;;;13.50;54.20;;;;;;7397416;19;20030;-86
2022/04/27 05:48:38;;;;;;;32.13;19.83;;;13.50;54.20;;;;;;7372399;19;20036;-85
2022/04/27 05:51:07;;;;;;;36.60;20.02;;;13.50;54.20;;;;;;7370950;19;20918;-84
2022/04/27 05:53:36;;;;;;;36.03;20.75;;;13.60;54.30;;;;;;7370199;19;20027;-84
2022/04/27 05:56:05;;;;;;;33.92;20.40;;;13.60;54.10;;;;;;7372715;19;20021;-85
2022/04/27 05:58:34;;;;;;;36.50;20.52;;;13.60;54.10;;;;;;7393298;19;20014;-86
2022/04/27 06:01:02;;;;;;;34.97;20.33;;;13.60;54.10;;;;;;7371593;19;20018;-86
2022/04/27 06:03:31;;;;;;;40.00;19.90;;;13.70;54.10;;;;;;7372629;19;20395;-85
2022/04/27 06:06:02;;;;;;;36.60;22.92;;;13.70;54.10;;;;;;7377863;19;20027;-85
2022/04/27 06:08:31;;;;;;;33.70;19.88;;;13.80;54.00;;;;;;7371293;19;20031;-86
2022/04/27 06:11:00;;;;;;;41.28;21.92;;;13.80;53.90;;;;;;7372753;19;20031;-85
2022/04/27 06:13:30;;;;;;;34.30;20.65;;;13.80;53.90;;;;;;7392573;19;20031;-86
2022/04/27 06:15:59;;;;;;;38.10;21.10;;;13.70;54.00;;;;;;7370981;19;20019;-85
2022/04/27 06:18:28;;;;;;;33.58;20.60;;;13.70;54.00;;;;;;7371865;19;20094;-85
2022/04/27 06:20:56;;;;;;;32.47;20.55;;;13.80;54.00;;;;;;7370290;19;20018;-84
2022/04/27 06:23:28;;;;;;;32.88;20.38;;;13.80;54.00;;;;;;7374688;19;20031;-85
2022/04/27 06:25:57;;;;;;;34.47;20.80;;;13.80;54.00;;;;;;7377205;19;20022;-83
2022/04/27 06:28:26;;;;;;;41.60;21.67;;;13.90;54.00;;;;;;7395176;19;20015;-85
2022/04/27 06:30:54;;;;;;;34.40;20.45;;;13.90;54.00;;;;;;7372325;19;20018;-85
2022/04/27 06:33:23;;;;;;;38.25;20.30;;;14.00;54.60;;;;;;7371244;19;20062;-84
2022/04/27 06:35:53;;;;;;;37.13;21.63;;;14.00;53.90;;;;;;7370182;19;20379;-83
2022/04/27 06:38:22;;;;;;;36.17;21.60;;;14.10;53.70;;;;;;7369641;19;20069;-85
2022/04/27 06:40:53;;;;;;;37.70;21.77;;;14.10;53.60;;;;;;7391482;19;20330;-84
2022/04/27 06:43:22;;;;;;;36.83;21.75;;;14.10;53.50;;;;;;7369558;19;20078;-84
2022/04/27 06:45:51;;;;;;;37.13;21.05;;;14.20;53.60;;;;;;7370561;19;20011;-84
2022/04/27 06:48:19;;;;;;;37.17;21.40;;;14.20;53.60;;;;;;7377306;19;20041;-85
2022/04/27 06:50:48;;;;;;;36.22;21.30;;;14.30;53.70;;;;;;7374664;19;20086;-85
2022/04/27 06:53:17;;;;;;;38.55;21.90;;;14.30;53.30;;;;;;7376732;19;20021;-85
2022/04/27 06:55:47;;;;;;;37.22;21.50;;;14.30;53.40;;;;;;7399230;19;20038;-85
2022/04/27 06:58:18;;;;;;;38.20;21.75;;;14.30;53.20;;;;;;7377068;19;20136;-86
2022/04/27 07:00:47;;;;;;;33.72;21.65;;;14.30;53.20;;;;;;7378053;19;20036;-85
2022/04/27 07:03:16;;;;;;;35.97;22.05;;;14.40;53.30;;;;;;7379389;19;20022;-85
2022/04/27 07:05:45;;;;;;;38.05;22.20;;;14.40;53.30;;;;;;7375794;19;20466;-85
2022/04/27 07:08:13;;;;;;;35.58;22.00;;;14.40;53.10;;;;;;7375707;19;20991;-85
2022/04/27 07:10:42;;;;;;;36.17;21.90;;;14.40;53.20;;;;;;7400010;19;20151;-85
2022/04/27 07:13:11;;;;;;;41.20;21.88;;;14.40;53.40;;;;;;7376219;19;20095;-86
2022/04/27 07:15:42;;;;;;;36.95;21.38;;;14.40;53.50;;;;;;7375609;19;20123;-85
2022/04/27 07:18:12;;;;;;;44.83;22.58;;;14.50;53.50;;;;;;7375846;19;20027;-85
2022/04/27 07:20:41;;;;;;;41.97;22.85;;;14.50;53.80;;;;;;7377631;19;20007;-86
2022/04/27 07:23:10;;;;;;;41.45;22.30;;;14.50;54.80;;;;;;7374915;19;20028;-85
2022/04/27 07:25:42;;;;;;;41.88;22.58;;;14.70;54.20;;;;;;7394494;19;20014;-83
2022/04/27 07:28:10;;;;;;;36.60;23.05;;;14.70;53.60;;;;;;7374909;19;20058;-83
2022/04/27 07:30:42;;;;;;;36.95;22.33;;;14.70;53.40;;;;;;7374350;19;20491;-85
2022/04/27 07:33:10;;;;;;;41.17;22.58;;;14.80;53.30;;;;;;7373263;19;20105;-84
2022/04/27 07:35:39;;;;;;;36.72;21.65;;;14.90;53.40;;;;;;7376798;19;20023;-85
2022/04/27 07:38:08;;;;;;;40.70;22.05;;;14.90;53.30;;;;;;7378835;19;20018;-84
2022/04/27 07:40:37;;;;;;;34.88;22.13;;;15.00;53.30;;;;;;7397702;19;20039;-85
2022/04/27 07:43:05;;;;;;;50.80;23.90;;;15.10;53.10;;;;;;7374849;19;20426;-84
2022/04/27 07:45:34;;;;;;;40.83;23.05;;;15.10;52.70;;;;;;7376751;19;20015;-85
2022/04/27 07:48:06;;;;;;;37.72;24.02;;;15.20;53.20;;;;;;7376902;19;20018;-85
2022/04/27 07:50:35;;;;;;;41.60;23.63;;;15.20;52.70;;;;;;7374318;19;20329;-85
2022/04/27 07:53:05;;;;;;;40.92;24.52;;;15.20;52.90;;;;;;7376149;19;20031;-83
2022/04/27 07:55:33;;;;;;;36.72;23.75;;;15.20;52.90;;;;;;7396305;19;20031;-84
2022/04/27 07:58:03;;;;;;;38.80;23.45;;;15.20;53.60;;;;;;7378989;19;20031;-84
2022/04/27 08:00:32;;;;;;;43.70;24.40;;;15.20;52.80;;;;;;7380155;19;20011;-84
2022/04/27 08:03:01;;;;;;;40.05;23.30;;;15.20;52.90;;;;;;7380823;19;20466;-86
2022/04/27 08:05:35;;;;;;;45.50;24.17;;;15.30;53.10;;;;;;7379538;19;20006;-85
2022/04/27 08:08:04;;;;;;;40.33;22.75;;;15.30;53.10;;;;;;7379160;19;20043;-85
2022/04/27 08:10:32;;;;;;;44.35;24.13;;;15.40;53.00;;;;;;7404512;19;20015;-85
2022/04/27 08:13:01;;;;;;;48.70;28.08;;;15.40;52.80;;;;;;7385782;19;20014;-85
2022/04/27 08:15:30;;;;;;;44.83;24.55;;;15.40;53.10;;;;;;7382242;19;20086;-85
2022/04/27 08:18:01;;;;;;;40.35;24.13;;;15.50;53.20;;;;;;7376235;19;20014;-85
2022/04/27 08:23:16;;;;;;;40.30;24.73;;;15.60;53.20;;;;;;7375768;19;20438;-85
2022/04/27 08:25:46;;;;;;;38.80;24.05;;;15.60;52.60;;;;;;7395662;19;20031;-85
2022/04/27 08:28:19;;;;;;;44.35;25.30;;;15.60;52.50;;;;;;7374786;19;20109;-85
2022/04/27 08:30:49;;;;;;;38.63;24.55;;;15.60;52.20;;;;;;7373791;19;20475;-85
2022/04/27 08:33:19;;;;;;;42.72;24.70;;;15.60;52.30;;;;;;7371672;19;20161;-85
2022/04/27 08:35:51;;;;;;;45.13;24.38;;;15.60;52.60;;;;;;7373222;19;20015;-86
2022/04/27 08:38:20;;;;;;;45.28;24.85;;;15.50;52.40;;;;;;7372951;19;20014;-85
2022/04/27 08:40:49;;;;;;;43.72;24.42;;;15.60;52.30;;;;;;7396489;19;20028;-86
2022/04/27 08:43:18;;;;;;;41.25;24.48;;;15.70;52.80;;;;;;7374979;19;20022;-86
2022/04/27 08:45:48;;;;;;;43.67;24.60;;;15.80;52.50;;;;;;7374545;19;20341;-85
2022/04/27 08:48:18;;;;;;;44.22;24.63;;;15.80;52.80;;;;;;7374639;19;20326;-85
2022/04/27 08:50:50;;;;;;;37.90;23.60;;;15.80;52.50;;;;;;7376119;19;20015;-85
2022/04/27 08:53:23;;;;;;;41.92;24.35;;;15.90;52.20;;;;;;7377148;19;20434;-85
2022/04/27 08:55:53;;;;;;;40.03;24.30;;;15.70;51.90;;;;;;7412461;19;20047;-85
2022/04/27 08:58:23;;;;;;;37.97;24.58;;;15.80;52.40;;;;;;7406651;19;20023;-85
2022/04/27 09:00:52;;;;;;;43.55;24.25;;;15.90;52.50;;;;;;7389606;19;20007;-85
2022/04/27 09:03:29;;;;;;;39.33;23.73;;;15.90;52.60;;;;;;7388989;19;20010;-85
2022/04/27 09:06:02;;;;;;;38.70;22.92;;;15.90;52.30;;;;;;7397255;19;20080;-86
2022/04/27 09:08:40;;;;;;;39.90;22.00;;;15.90;52.00;;;;;;7378349;19;20019;-85
2022/04/27 09:11:20;;;;;;;38.40;21.33;;;15.90;52.30;;;;;;7375941;19;20022;-87
2022/04/27 09:13:53;;;;;;;35.80;20.35;;;16.00;52.10;;;;;;7410592;19;20022;-91
2022/04/27 09:16:24;;;;;;;34.38;19.65;;;16.10;52.40;;;;;;7384143;19;20018;-83
2022/04/27 09:22:01;;;;;;;39.75;20.80;;;16.20;51.80;;;;;;7376015;19;20007;-83
2022/04/27 09:24:31;;;;;;;36.15;21.92;;;16.00;51.50;;;;;;7377036;19;20089;-84
2022/04/27 09:27:03;;;;;;;34.22;20.77;;;16.10;51.80;;;;;;7375785;19;20077;-82
2022/04/27 09:29:33;;;;;;;39.95;21.50;;;16.20;52.00;;;;;;7375786;19;20015;-82
2022/04/27 09:32:03;;;;;;;37.00;22.42;;;16.10;51.50;;;;;;7375436;19;20021;-82
2022/04/27 09:34:44;;;;;;;36.25;21.60;;;16.10;51.70;;;;;;7392253;19;20021;-83
2022/04/27 09:37:18;;;;;;;42.65;21.88;;;16.20;51.90;;;;;;7379890;19;20049;-85
2022/04/27 09:39:48;;;;;;;42.38;23.10;;;16.30;52.00;;;;;;7383183;19;20015;-89
2022/04/27 09:47:23;;;;;;;33.58;21.90;;;16.40;51.50;;;;;;7313817;19;19991;-84
2022/04/27 09:49:58;;;;;;;40.80;24.15;;;16.50;52.10;;;;;;7428813;19;20001;-89
2022/04/27 09:52:30;;;;;;;40.85;23.77;;;16.50;52.00;;;;;;7305008;19;20007;-90
2022/04/27 09:55:02;;;;;;;35.25;22.30;;;16.60;52.10;;;;;;7400341;19;20030;-90
2022/04/27 09:57:35;;;;;;;38.92;25.20;;;16.60;52.60;;;;;;7401604;19;20028;-89
2022/04/27 10:00:04;;;;;;;40.40;25.63;;;16.60;52.60;;;;;;7383521;19;20446;-84
2022/04/27 10:02:35;;;;;;;37.85;22.48;;;16.70;52.20;;;;;;7372645;19;20877;-83
2022/04/27 10:05:05;;;;;;;34.90;23.75;;;16.80;52.20;;;;;;7373687;19;20007;-83
2022/04/27 10:07:37;;;;;;;35.35;22.65;;;16.70;52.20;;;;;;7393791;19;20094;-83
2022/04/27 10:10:08;;;;;;;37.38;22.58;;;16.80;52.80;;;;;;7372198;19;20507;-80
2022/04/27 10:12:39;;;;;;;35.70;23.63;;;16.90;52.10;;;;;;7375452;19;20339;-89
2022/04/27 10:15:09;;;;;;;39.72;23.27;;;16.90;51.70;;;;;;7371114;19;20403;-81
2022/04/27 10:17:39;;;;;;;40.30;23.30;;;17.00;51.80;;;;;;7371322;19;20018;-81
2022/04/27 10:20:30;;;;;;;40.05;24.65;;;17.10;51.50;;;;;;7370550;19;20098;-80
2022/04/27 10:23:24;;;;;;;32.03;21.73;;;17.00;50.90;;;;;;7377553;19;20019;-80
2022/04/27 10:26:17;;;;;;;40.58;23.73;;;17.00;51.40;;;;;;7400738;19;20007;-81
2022/04/27 10:28:50;;;;;;;34.72;21.27;;;17.00;51.90;;;;;;7384141;19;20032;-81
2022/04/27 10:31:48;;;;;;;32.97;20.05;;;17.10;51.30;;;;;;7385921;19;20636;-79
2022/04/27 10:34:25;;;;;;;33.63;21.90;;;17.20;50.60;;;;;;7383401;19;20019;-80
2022/04/27 10:36:55;;;;;;;33.80;22.20;;;17.30;50.70;;;;;;7393057;19;20010;-90
2022/04/27 10:39:28;;;;;;;36.00;23.23;;;17.30;50.00;;;;;;7396046;19;20070;-84
2022/04/27 10:42:19;;;;;;;31.70;20.33;;;17.30;50.50;;;;;;7390720;19;20084;-91
2022/04/27 10:45:20;;;;;;;34.85;22.85;;;17.40;50.90;;;;;;7391880;19;22061;-91
2022/04/27 10:47:49;;;;;;;30.42;19.70;;;17.50;51.10;;;;;;7388974;19;20022;-91
2022/04/27 10:50:33;;;;;;;30.02;20.30;;;17.70;51.20;;;;;;7393062;19;20024;-91
2022/04/27 10:53:18;;;;;;;29.10;19.63;;;17.80;50.40;;;;;;7400213;19;20286;-92
2022/04/27 10:55:53;;;;;;;34.20;21.65;;;17.90;50.80;;;;;;7422751;19;20734;-91
2022/04/27 10:58:28;;;;;;;34.28;21.45;;;17.90;49.80;;;;;;7394435;19;20043;-92
2022/04/27 11:01:20;;;;;;;29.30;19.83;;;17.90;49.70;;;;;;7396380;19;20042;-92
2022/04/27 11:03:59;;;;;;;;;;;17.90;49.20;;;;;;7397296;19;20113;-92
2022/04/27 11:06:30;;;;;;;29.83;19.70;;;18.20;49.60;;;;;;7397257;19;19925;-92
2022/04/27 11:09:16;;;;;;;22.50;15.65;;;18.20;50.10;;;;;;7401438;19;20018;-90
2022/04/27 11:11:56;;;;;;;21.40;15.00;;;18.30;49.20;;;;;;7399306;19;20473;-92
2022/04/27 11:14:34;;;;;;;23.60;14.43;;;18.50;48.50;;;;;;7394124;19;20007;-91
2022/04/27 11:17:04;;;;;;;23.83;14.80;;;18.70;48.30;;;;;;7390774;19;20029;-91
2022/04/27 11:19:37;;;;;;;20.77;14.13;;;18.80;47.90;;;;;;7414028;19;20022;-91
2022/04/27 11:22:15;;;;;;;19.50;13.20;;;18.90;47.70;;;;;;7395687;19;20028;-91
2022/04/27 11:24:46;;;;;;;22.92;13.68;;;19.00;47.50;;;;;;7399877;19;20022;-91
2022/04/27 11:27:26;;;;;;;21.23;13.23;;;19.00;46.70;;;;;;7393208;19;20088;-91
2022/04/27 11:29:56;;;;;;;19.70;12.13;;;19.10;46.70;;;;;;7397862;19;20106;-91
2022/04/27 11:32:25;;;;;;;20.15;11.65;;;19.10;45.80;;;;;;7395918;19;20026;-91
2022/04/27 11:34:53;;;;;;;18.83;11.93;;;19.10;45.50;;;;;;7419455;19;20704;-91
2022/04/27 11:37:25;;;;;;;17.02;12.90;;;19.00;46.10;;;;;;7399010;19;20022;-90
2022/04/27 11:39:54;;;;;;;22.55;14.05;;;18.80;45.90;;;;;;7398332;19;20035;-91
2022/04/27 11:42:34;;;;;;;25.35;13.85;;;18.80;46.20;;;;;;7400905;19;20015;-91
2022/04/27 11:45:03;;;;;;;22.27;12.77;;;18.70;46.80;;;;;;7397151;19;20010;-91
2022/04/27 11:47:33;;;;;;;24.73;13.45;;;18.70;46.90;;;;;;7393901;19;20023;-91
2022/04/27 11:50:03;;;;;;;23.33;13.52;;;18.80;46.70;;;;;;7403036;19;20034;-91
2022/04/27 11:52:36;;;;;;;22.40;14.05;;;18.80;46.60;;;;;;7416471;19;20022;-91
2022/04/27 11:55:11;;;;;;;18.23;11.70;;;18.80;46.00;;;;;;7395723;19;20006;-91
2022/04/27 11:57:44;;;;;;;17.63;12.27;;;18.80;45.60;;;;;;7395501;19;20079;-91
2022/04/27 12:00:21;;;;;;;16.85;11.60;;;18.90;46.90;;;;;;7392458;19;20018;-92
2022/04/27 12:02:50;;;;;;;15.90;12.30;;;18.90;46.70;;;;;;7391394;19;20033;-92
2022/04/27 12:05:19;;;;;;;17.33;10.60;;;19.00;46.00;;;;;;7392731;19;20021;-92
2022/04/27 12:07:52;;;;;;;15.68;11.93;;;19.10;45.50;;;;;;7413557;19;20034;-92
2022/04/27 12:10:20;;;;;;;15.05;11.10;;;19.00;45.70;;;;;;7391850;19;20014;-93
2022/04/27 12:12:52;;;;;;;17.48;10.20;;;19.10;45.70;;;;;;7386394;19;20123;-91
2022/04/27 12:15:27;;;;;;;16.35;10.10;;;19.10;45.60;;;;;;7387314;19;20026;-91
2022/04/27 12:18:01;;;;;;;17.55;10.00;;;19.20;46.30;;;;;;7385477;19;20034;-90
2022/04/27 12:20:34;;;;;;;13.43;9.48;;;19.20;45.90;;;;;;7385919;19;20042;-91
2022/04/27 12:23:05;;;;;;;15.43;10.75;;;19.30;45.60;;;;;;7387139;19;20054;-91
2022/04/27 12:25:43;;;;;;;16.25;10.23;;;19.40;44.70;;;;;;7408006;19;20368;-91
2022/04/27 12:28:19;;;;;;;18.05;10.50;;;19.40;45.00;;;;;;7388675;19;20454;-91
2022/04/27 12:30:54;;;;;;;16.13;9.80;;;19.40;45.10;;;;;;7391931;19;20021;-90
2022/04/27 12:33:25;;;;;;;15.75;9.43;;;19.50;45.40;;;;;;7382078;19;20021;-85
2022/04/27 12:38:37;;;;;;;17.58;10.43;;;19.80;45.30;;;;;;7381046;19;20015;-79
2022/04/27 12:41:08;;;;;;;14.77;9.98;;;19.90;44.70;;;;;;7378200;19;20015;-81
2022/04/27 12:43:50;;;;;;;18.77;8.90;;;20.00;45.00;;;;;;7418428;19;20094;-83
2022/04/27 12:46:19;;;;;;;14.52;8.43;;;20.10;45.10;;;;;;7387909;19;20018;-82
2022/04/27 12:48:48;;;;;;;12.05;8.73;;;20.30;44.00;;;;;;7379638;19;20014;-81
2022/04/27 12:51:17;;;;;;;16.05;9.18;;;20.30;44.00;;;;;;7372053;19;20386;-81
2022/04/27 12:53:54;;;;;;;14.88;9.05;;;20.50;43.80;;;;;;7385197;19;20035;-80
2022/04/27 12:56:23;;;;;;;10.52;8.25;;;20.40;43.00;;;;;;7402540;19;20010;-80
2022/04/27 12:59:10;;;;;;;12.02;8.32;;;20.40;42.90;;;;;;7424366;19;20023;-81
2022/04/27 13:01:39;;;;;;;10.10;8.02;;;20.40;43.40;;;;;;7386117;19;20018;-82
2022/04/27 13:04:08;;;;;;;10.73;7.60;;;20.50;43.50;;;;;;7384471;19;20032;-79
2022/04/27 13:06:37;;;;;;;11.20;8.45;;;20.60;43.40;;;;;;7377180;19;20039;-81
2022/04/27 13:11:59;;;;;;;13.85;9.50;;;20.70;42.00;;;;;;7376257;19;20309;-79
2022/04/27 13:14:31;;;;;;;14.67;9.83;;;20.60;42.40;;;;;;7379275;19;20035;-81
2022/04/27 13:17:00;;;;;;;15.32;9.43;;;20.60;42.50;;;;;;7374608;19;20478;-80
2022/04/27 13:19:29;;;;;;;11.73;8.07;;;20.50;42.50;;;;;;7396993;19;20015;-79
2022/04/27 13:21:58;;;;;;;9.70;8.00;;;20.40;43.20;;;;;;7377989;19;20015;-80